Terminal Aerodrome Forecast
Issued by NWS

Home | Current Version | Previous Version | Text Only | Print | Product List | Glossary On
Versions: 1 2 3 4 5 6 7 8 9 10 11 12 13 14 15 16 17 18 19
000
FTUS43 KMQT 202300
TAFCMX
TAF
KCMX 202320Z 2100/2124 35010KT P6SM OVC020
     FM210300 01012KT P6SM OVC025
     FM210900 03009KT P6SM OVC025
     FM211500 07010KT P6SM SCT025=

USA.gov is the U.S. government's official web portal to all federal, state and local government web resources and services.